createdAt,value
2019-01-16T00:00:58.048Z,8.93
2019-01-16T00:03:45.393Z,8.70
2019-01-16T00:06:34.855Z,9.65
2019-01-16T00:09:32.800Z,9.20
2019-01-16T00:12:16.858Z,9.90
2019-01-16T00:14:54.747Z,10.05
2019-01-16T00:17:42.375Z,10.43
2019-01-16T00:20:30.309Z,10.75
2019-01-16T00:23:07.693Z,11.12
2019-01-16T00:25:55.338Z,11.60
2019-01-16T00:28:35.280Z,11.15
2019-01-16T00:31:16.533Z,11.83
2019-01-16T00:33:54.159Z,11.70
2019-01-16T00:36:41.940Z,11.65
2019-01-16T00:39:29.781Z,11.95
2019-01-16T00:42:28.102Z,12.03
2019-01-16T00:45:11.510Z,12.07
2019-01-16T00:48:09.216Z,11.53
2019-01-16T00:51:02.580Z,12.07
2019-01-16T00:53:50.684Z,12.37
2019-01-16T00:56:40.173Z,11.85
2019-01-16T00:59:24.938Z,12.85
2019-01-16T01:02:12.490Z,12.30
2019-01-16T01:05:10.298Z,11.53
2019-01-16T01:08:02.399Z,12.07
2019-01-16T01:10:53.580Z,11.28
2019-01-16T01:13:56.937Z,11.80
2019-01-16T01:16:48.954Z,11.40
2019-01-16T01:19:36.922Z,11.30
2019-01-16T01:22:37.915Z,10.65
2019-01-16T01:25:42.128Z,10.77
2019-01-16T01:28:22.450Z,10.73
2019-01-16T01:31:20.378Z,11.03
2019-01-16T01:34:15.090Z,11.78
2019-01-16T01:37:13.226Z,11.03
2019-01-16T01:40:06.611Z,10.98
2019-01-16T01:42:54.200Z,10.68
2019-01-16T01:45:41.723Z,10.38
2019-01-16T01:48:39.995Z,10.53
2019-01-16T01:51:36.958Z,11.20
2019-01-16T01:54:24.736Z,10.93
2019-01-16T01:57:19.789Z,11.63
2019-01-16T02:00:06.096Z,9.83
2019-01-16T02:03:08.439Z,10.38
2019-01-16T02:06:02.757Z,9.80
2019-01-16T02:08:42.316Z,8.93
2019-01-16T02:11:26.956Z,9.40
2019-01-16T02:14:13.032Z,9.80
2019-01-16T02:16:58.333Z,10.15
2019-01-16T02:19:56.497Z,10.37
2019-01-16T02:22:46.505Z,9.40
2019-01-16T02:25:35.838Z,8.88
2019-01-16T02:28:12.510Z,9.90
2019-01-16T02:30:55.689Z,9.38
2019-01-16T02:33:44.210Z,8.85
2019-01-16T02:36:24.182Z,10.20
2019-01-16T02:39:18.362Z,8.78
2019-01-16T02:42:07.605Z,7.70
2019-01-16T02:44:56.643Z,9.20
2019-01-16T02:47:35.199Z,11.38
2019-01-16T02:50:15.372Z,9.20
2019-01-16T02:53:10.364Z,8.00
2019-01-16T02:55:51.213Z,9.55
2019-01-16T02:58:27.780Z,8.28
2019-01-16T03:01:08.917Z,8.33
2019-01-16T03:03:57.683Z,8.85
2019-01-16T03:06:42.404Z,8.37
2019-01-16T03:09:18.317Z,9.48
2019-01-16T03:12:05.814Z,8.38
2019-01-16T03:14:44.308Z,8.30
2019-01-16T03:17:33.158Z,8.68
2019-01-16T03:20:19.691Z,9.05
2019-01-16T03:23:07.886Z,9.73
2019-01-16T03:25:43.619Z,10.15
2019-01-16T03:28:48.013Z,10.98
2019-01-16T03:31:31.482Z,10.82
2019-01-16T03:34:27.226Z,10.70
2019-01-16T03:37:22.063Z,11.03
2019-01-16T03:40:20.104Z,10.85
2019-01-16T03:43:08.059Z,10.23
2019-01-16T03:45:46.436Z,10.50
2019-01-16T03:48:42.913Z,10.88
2019-01-16T03:51:38.292Z,10.13
2019-01-16T03:54:26.168Z,10.60
2019-01-16T03:57:18.305Z,11.08
2019-01-16T04:00:25.531Z,9.25
2019-01-16T04:03:16.260Z,10.80
2019-01-16T04:06:03.996Z,10.50
2019-01-16T04:08:55.598Z,10.20
2019-01-16T04:11:50.777Z,10.32
2019-01-16T04:14:45.109Z,10.00
2019-01-16T04:17:28.019Z,10.32
2019-01-16T04:20:25.742Z,9.73
2019-01-16T04:23:05.162Z,11.80
2019-01-16T04:26:03.437Z,10.30
2019-01-16T04:28:51.051Z,10.63
2019-01-16T04:31:39.839Z,10.15
2019-01-16T04:34:29.720Z,9.43
2019-01-16T04:37:13.663Z,9.95
2019-01-16T04:40:01.234Z,10.08
2019-01-16T04:42:49.220Z,10.57
2019-01-16T04:45:38.015Z,9.50
2019-01-16T04:48:36.535Z,8.28
2019-01-16T04:51:31.431Z,7.60
2019-01-16T04:54:12.367Z,8.20
2019-01-16T04:57:03.983Z,8.75
2019-01-16T04:59:50.736Z,8.17
2019-01-16T05:02:39.692Z,6.90
2019-01-16T05:05:22.012Z,7.85
2019-01-16T05:08:10.796Z,8.25
2019-01-16T05:11:08.611Z,7.77
2019-01-16T05:14:00.759Z,7.25
2019-01-16T05:16:48.186Z,7.53
2019-01-16T05:19:45.950Z,6.87
2019-01-16T05:22:24.194Z,7.00
2019-01-16T05:25:19.004Z,7.92
2019-01-16T05:28:06.892Z,6.40
2019-01-16T05:30:54.427Z,6.47
2019-01-16T05:33:52.106Z,6.28
2019-01-16T05:36:33.819Z,7.47
2019-01-16T05:39:29.771Z,6.05
2019-01-16T05:42:21.360Z,7.72
2019-01-16T05:45:09.150Z,6.35
2019-01-16T05:47:56.714Z,5.42
2019-01-16T05:50:45.484Z,6.25
2019-01-16T05:53:30.524Z,6.62
2019-01-16T05:56:23.571Z,5.62
2019-01-16T05:59:25.652Z,6.65
2019-01-16T06:02:20.396Z,5.55
2019-01-16T06:05:12.419Z,6.12
2019-01-16T06:08:19.468Z,6.47
2019-01-16T06:11:20.097Z,4.97
2019-01-16T06:14:05.587Z,5.58
2019-01-16T06:16:43.281Z,4.90
2019-01-16T06:19:36.868Z,6.40
2019-01-16T06:22:30.420Z,5.83
2019-01-16T06:25:12.842Z,6.45
2019-01-16T06:28:07.174Z,7.10
2019-01-16T06:30:44.473Z,7.90
2019-01-16T06:33:23.911Z,5.58
2019-01-16T06:36:21.368Z,5.65
2019-01-16T06:39:11.128Z,6.22
2019-01-16T06:42:03.039Z,5.90
2019-01-16T06:44:52.449Z,6.13
2019-01-16T06:47:29.328Z,6.50
2019-01-16T06:50:07.542Z,5.83
2019-01-16T06:52:45.216Z,6.78
2019-01-16T06:55:32.978Z,11.08
2019-01-16T06:58:16.715Z,7.30
2019-01-16T07:00:54.293Z,6.12
2019-01-16T07:03:35.772Z,7.12
2019-01-16T07:06:23.627Z,5.33
2019-01-16T07:09:24.848Z,6.97
2019-01-16T07:12:19.761Z,6.23
2019-01-16T07:15:07.809Z,6.53
2019-01-16T07:17:46.913Z,4.67
2019-01-16T07:20:34.440Z,5.67
2019-01-16T07:23:32.237Z,7.85
2019-01-16T07:26:36.266Z,7.67
2019-01-16T07:29:24.007Z,7.58
2019-01-16T07:32:13.227Z,6.20
2019-01-16T07:35:02.182Z,6.22
2019-01-16T07:37:42.157Z,5.12
2019-01-16T07:40:30.000Z,6.20
2019-01-16T07:43:24.818Z,5.15
2019-01-16T07:46:04.836Z,6.00
2019-01-16T07:48:54.404Z,5.75
2019-01-16T07:51:49.093Z,6.05
2019-01-16T07:54:36.602Z,8.05
2019-01-16T07:57:24.903Z,10.58
2019-01-16T08:00:17.028Z,7.67
2019-01-16T08:03:12.164Z,5.95
2019-01-16T08:05:54.136Z,5.97
2019-01-16T08:08:46.969Z,6.42
2019-01-16T08:11:42.027Z,6.65
2019-01-16T08:14:29.647Z,7.75
2019-01-16T08:17:36.689Z,8.23
2019-01-16T08:20:26.368Z,8.25
2019-01-16T08:23:12.584Z,7.62
2019-01-16T08:26:10.465Z,8.63
2019-01-16T08:29:05.407Z,8.98
2019-01-16T08:31:54.266Z,10.53
2019-01-16T08:34:42.020Z,8.50
2019-01-16T08:37:33.750Z,9.53
2019-01-16T08:40:21.807Z,8.45
2019-01-16T08:43:15.498Z,8.85
2019-01-16T08:45:56.136Z,9.78
2019-01-16T08:48:43.579Z,9.58
2019-01-16T08:51:41.154Z,9.30
2019-01-16T08:54:28.812Z,10.53
2019-01-16T08:57:24.250Z,10.50
2019-01-16T09:00:18.692Z,11.93
2019-01-16T09:03:06.472Z,12.20
2019-01-16T09:05:58.236Z,11.43
2019-01-16T09:08:46.149Z,13.38
2019-01-16T09:11:34.925Z,13.62
2019-01-16T09:14:29.896Z,12.90
2019-01-16T09:17:21.997Z,12.53
2019-01-16T09:20:16.894Z,15.45
2019-01-16T09:23:02.141Z,15.43
2019-01-16T09:25:50.936Z,13.78
2019-01-16T09:28:30.743Z,14.55
2019-01-16T09:31:10.984Z,13.15
2019-01-16T09:33:53.687Z,16.10
2019-01-16T09:36:48.330Z,14.98
2019-01-16T09:39:35.864Z,13.85
2019-01-16T09:42:32.016Z,13.70
2019-01-16T09:45:21.793Z,12.37
2019-01-16T09:48:13.536Z,12.03
2019-01-16T09:51:05.497Z,13.85
2019-01-16T09:53:54.377Z,13.43
2019-01-16T09:56:37.871Z,10.18
2019-01-16T09:59:26.474Z,10.95
2019-01-16T10:02:21.409Z,10.08
2019-01-16T10:05:16.651Z,9.23
2019-01-16T10:07:57.300Z,11.03
2019-01-16T10:10:55.237Z,9.38
2019-01-16T10:13:44.151Z,10.32
2019-01-16T10:16:39.025Z,10.93
2019-01-16T10:19:30.865Z,12.33
2019-01-16T10:22:19.738Z,9.48
2019-01-16T10:25:08.553Z,9.48
2019-01-16T10:27:54.007Z,12.40
2019-01-16T10:30:52.241Z,10.38
2019-01-16T10:33:40.171Z,11.83
2019-01-16T10:36:44.171Z,12.63
2019-01-16T10:39:42.029Z,12.57
2019-01-16T10:42:20.602Z,12.55
2019-01-16T10:45:06.367Z,12.23
2019-01-16T10:47:44.804Z,10.45
2019-01-16T10:50:32.688Z,10.63
2019-01-16T10:53:13.794Z,12.65
2019-01-16T10:56:05.477Z,11.60
2019-01-16T10:59:03.497Z,12.43
2019-01-16T11:01:52.449Z,10.23
2019-01-16T11:04:41.428Z,11.57
2019-01-16T11:07:22.384Z,14.25
2019-01-16T11:10:05.529Z,13.15
2019-01-16T11:12:53.204Z,11.05
2019-01-16T11:15:54.327Z,11.12
2019-01-16T11:18:49.088Z,10.98
2019-01-16T11:21:33.648Z,11.28
2019-01-16T11:24:21.755Z,12.70
2019-01-16T11:27:26.101Z,11.50
2019-01-16T11:30:17.652Z,12.23
2019-01-16T11:33:01.480Z,14.23
2019-01-16T11:35:56.373Z,13.88
2019-01-16T11:38:43.762Z,14.40
2019-01-16T11:41:22.177Z,12.50
2019-01-16T11:44:00.812Z,11.33
2019-01-16T11:46:52.897Z,15.23
2019-01-16T11:49:41.211Z,14.75
2019-01-16T11:52:30.073Z,13.68
2019-01-16T11:55:30.944Z,15.58
2019-01-16T11:58:25.630Z,14.83
2019-01-16T12:01:17.444Z,13.88
2019-01-16T12:04:04.988Z,11.80
2019-01-16T12:06:55.564Z,15.68
2019-01-16T12:09:37.575Z,14.00
2019-01-16T12:12:25.404Z,12.75
2019-01-16T12:15:17.077Z,13.83
2019-01-16T12:18:08.738Z,13.93
2019-01-16T12:20:57.570Z,13.55
2019-01-16T12:23:44.124Z,13.65
2019-01-16T12:26:25.267Z,15.10
2019-01-16T12:29:09.757Z,13.98
2019-01-16T12:32:01.345Z,11.33
2019-01-16T12:34:46.418Z,12.78
2019-01-16T12:37:30.444Z,14.60
2019-01-16T12:40:17.949Z,11.50
2019-01-16T12:43:04.138Z,12.47
2019-01-16T12:45:49.033Z,12.98
2019-01-16T12:48:43.899Z,11.05
2019-01-16T12:51:35.585Z,10.50
2019-01-16T12:54:14.329Z,11.55
2019-01-16T12:56:55.908Z,12.88
2019-01-16T12:59:43.505Z,12.50
2019-01-16T13:02:28.410Z,10.18
2019-01-16T13:05:26.561Z,10.82
2019-01-16T13:08:07.789Z,11.70
2019-01-16T13:11:02.518Z,13.98
2019-01-16T13:14:03.417Z,12.80
2019-01-16T13:16:41.597Z,14.33
2019-01-16T13:19:22.088Z,12.50
2019-01-16T13:22:23.500Z,12.00
2019-01-16T13:25:18.418Z,12.45
2019-01-16T13:28:11.681Z,15.40
2019-01-16T13:30:59.412Z,11.43
2019-01-16T13:33:54.316Z,12.43
2019-01-16T13:36:38.552Z,13.05
2019-01-16T13:39:31.021Z,11.60
2019-01-16T13:42:25.981Z,12.97
2019-01-16T13:45:12.120Z,10.37
2019-01-16T13:48:00.959Z,11.20
2019-01-16T13:51:01.886Z,12.27
2019-01-16T13:53:55.660Z,11.53
2019-01-16T13:57:02.766Z,11.78
2019-01-16T13:59:39.841Z,12.07
2019-01-16T14:02:28.803Z,11.88
2019-01-16T14:05:17.912Z,11.38
2019-01-16T14:08:07.527Z,14.13
2019-01-16T14:11:00.880Z,11.78
2019-01-16T14:14:00.605Z,12.03
2019-01-16T14:16:45.784Z,11.47
2019-01-16T14:19:37.438Z,13.75
2019-01-16T14:22:26.379Z,9.80
2019-01-16T14:25:14.102Z,11.23
2019-01-16T14:28:18.143Z,9.85
2019-01-16T14:31:19.295Z,12.88
2019-01-16T14:34:11.381Z,12.13
2019-01-16T14:37:18.878Z,12.37
2019-01-16T14:40:04.797Z,12.30
2019-01-16T14:42:52.495Z,11.18
2019-01-16T14:45:41.680Z,10.95
2019-01-16T14:48:20.203Z,12.75
2019-01-16T14:50:59.654Z,12.35
2019-01-16T14:54:00.475Z,13.13
2019-01-16T14:56:43.806Z,9.80
2019-01-16T14:59:31.680Z,10.70
2019-01-16T15:02:13.649Z,10.77
2019-01-16T15:04:52.668Z,11.17
2019-01-16T15:07:30.078Z,9.47
2019-01-16T15:10:21.708Z,13.65
2019-01-16T15:13:03.997Z,12.20
2019-01-16T15:15:53.883Z,11.75
2019-01-16T15:18:58.033Z,12.10
2019-01-16T15:21:53.235Z,11.75
2019-01-16T15:24:35.090Z,11.83
2019-01-16T15:27:42.696Z,12.50
2019-01-16T15:30:28.936Z,11.97
2019-01-16T15:33:12.385Z,11.63
2019-01-16T15:35:51.359Z,10.60
2019-01-16T15:38:38.901Z,11.68
2019-01-16T15:41:24.687Z,12.80
2019-01-16T15:44:13.508Z,13.22
2019-01-16T15:47:05.141Z,11.28
2019-01-16T15:49:56.786Z,13.65
2019-01-16T15:52:51.668Z,12.00
2019-01-16T15:55:44.728Z,9.93
2019-01-16T15:58:43.219Z,12.58
2019-01-16T16:01:32.297Z,12.55
2019-01-16T16:04:36.536Z,14.23
2019-01-16T16:07:31.523Z,19.35
2019-01-16T16:10:26.718Z,15.55
2019-01-16T16:13:24.374Z,12.88
2019-01-16T16:16:13.119Z,14.13
2019-01-16T16:19:00.618Z,19.75
2019-01-16T16:21:42.436Z,15.63
2019-01-16T16:24:35.180Z,20.12
2019-01-16T16:27:23.443Z,16.15
2019-01-16T16:30:15.128Z,19.95
2019-01-16T16:32:53.833Z,19.55
2019-01-16T16:35:45.692Z,28.20
2019-01-16T16:38:32.003Z,16.62
2019-01-16T16:41:10.933Z,12.98
2019-01-16T16:44:01.671Z,16.35
2019-01-16T16:46:51.138Z,13.37
2019-01-16T16:49:40.353Z,14.28
2019-01-16T16:52:28.499Z,10.75
2019-01-16T16:55:35.788Z,12.97
2019-01-16T16:58:23.421Z,12.30
2019-01-16T17:01:21.406Z,12.30
2019-01-16T17:04:16.623Z,11.33
2019-01-16T17:07:14.399Z,11.45
2019-01-16T17:10:11.018Z,10.75
2019-01-16T17:13:05.423Z,9.53
2019-01-16T17:16:05.611Z,11.63
2019-01-16T17:18:46.196Z,11.03
2019-01-16T17:21:34.398Z,11.50
2019-01-16T17:24:11.402Z,9.73
2019-01-16T17:26:54.115Z,10.78
2019-01-16T17:29:42.527Z,10.85
2019-01-16T17:32:26.872Z,11.30
2019-01-16T17:35:15.983Z,10.25
2019-01-16T17:38:23.040Z,11.18
2019-01-16T17:41:15.257Z,9.95
2019-01-16T17:44:06.786Z,10.55
2019-01-16T17:47:07.670Z,10.70
2019-01-16T17:49:55.563Z,12.25
2019-01-16T17:52:43.470Z,10.70
2019-01-16T17:55:31.503Z,12.35
2019-01-16T17:58:19.409Z,12.78
2019-01-16T18:01:26.439Z,13.60
2019-01-16T18:04:14.076Z,14.75
2019-01-16T18:06:53.954Z,13.30
2019-01-16T18:09:41.526Z,14.17
2019-01-16T18:12:29.382Z,16.07
2019-01-16T18:15:18.555Z,19.27
2019-01-16T18:18:07.714Z,16.70
2019-01-16T18:20:56.582Z,13.43
2019-01-16T18:23:39.281Z,13.48
2019-01-16T18:26:26.654Z,13.93
2019-01-16T18:29:15.574Z,14.18
2019-01-16T18:32:10.543Z,12.73
2019-01-16T18:35:05.783Z,12.93
2019-01-16T18:38:00.624Z,12.30
2019-01-16T18:40:49.663Z,11.70
2019-01-16T18:43:47.555Z,11.78
2019-01-16T18:46:38.431Z,15.95
2019-01-16T18:49:26.321Z,14.15
2019-01-16T18:52:22.352Z,12.78
2019-01-16T18:55:11.226Z,12.53
2019-01-16T18:57:54.135Z,13.60
2019-01-16T19:00:50.891Z,15.38
2019-01-16T19:03:48.215Z,10.23
2019-01-16T19:06:37.979Z,13.70
2019-01-16T19:09:37.203Z,13.00
2019-01-16T19:12:16.643Z,15.38
2019-01-16T19:15:08.118Z,14.98
2019-01-16T19:17:49.636Z,14.58
2019-01-16T19:20:33.723Z,13.25
2019-01-16T19:23:19.367Z,12.85
2019-01-16T19:26:08.743Z,14.87
2019-01-16T19:28:56.607Z,12.50
2019-01-16T19:31:45.665Z,10.60
2019-01-16T19:34:34.306Z,13.58
2019-01-16T19:37:23.562Z,10.48
2019-01-16T19:40:12.342Z,11.15
2019-01-16T19:42:59.899Z,14.05
2019-01-16T19:45:55.278Z,12.43
2019-01-16T19:48:41.158Z,11.08
2019-01-16T19:51:36.775Z,14.33
2019-01-16T19:54:25.720Z,13.45
2019-01-16T19:57:21.851Z,12.35
2019-01-16T20:00:09.639Z,11.83
2019-01-16T20:03:10.530Z,10.78
2019-01-16T20:05:55.693Z,11.95
2019-01-16T20:08:43.597Z,13.30
2019-01-16T20:11:44.198Z,13.32
2019-01-16T20:14:48.539Z,10.97
2019-01-16T20:17:36.915Z,12.70
2019-01-16T20:20:32.743Z,12.15
2019-01-16T20:23:20.608Z,13.83
2019-01-16T20:26:28.706Z,14.40
2019-01-16T20:29:16.485Z,13.85
2019-01-16T20:32:04.287Z,15.72
2019-01-16T20:34:41.722Z,13.55
2019-01-16T20:37:30.694Z,13.13
2019-01-16T20:40:23.191Z,16.20
2019-01-16T20:43:08.054Z,18.30
2019-01-16T20:45:51.077Z,14.23
2019-01-16T20:48:29.608Z,13.40
2019-01-16T20:51:17.238Z,15.37
2019-01-16T20:53:59.047Z,16.55
2019-01-16T20:56:51.764Z,15.45
2019-01-16T20:59:43.865Z,16.12
2019-01-16T21:02:31.466Z,14.68
2019-01-16T21:05:19.396Z,13.83
2019-01-16T21:08:22.867Z,18.90
2019-01-16T21:11:08.806Z,17.45
2019-01-16T21:13:55.899Z,15.90
2019-01-16T21:16:46.979Z,15.23
2019-01-16T21:19:35.859Z,14.13
2019-01-16T21:22:28.090Z,13.37
2019-01-16T21:25:20.331Z,13.80
2019-01-16T21:28:09.215Z,14.65
2019-01-16T21:30:58.161Z,14.28
2019-01-16T21:33:46.292Z,11.88
2019-01-16T21:36:35.492Z,11.83
2019-01-16T21:39:25.430Z,12.73
2019-01-16T21:42:06.038Z,12.50
2019-01-16T21:44:48.904Z,11.20
2019-01-16T21:47:53.194Z,14.68
2019-01-16T21:50:44.894Z,14.30
2019-01-16T21:53:32.363Z,11.35
2019-01-16T21:56:24.315Z,12.70
2019-01-16T21:59:12.211Z,11.10
2019-01-16T22:02:00.432Z,11.97
2019-01-16T22:04:52.296Z,10.30
2019-01-16T22:07:59.368Z,11.83
2019-01-16T22:11:06.396Z,11.38
2019-01-16T22:13:53.996Z,10.20
2019-01-16T22:16:34.132Z,10.90
2019-01-16T22:19:38.021Z,10.43
2019-01-16T22:22:29.862Z,12.47
2019-01-16T22:25:18.631Z,12.90
2019-01-16T22:28:05.015Z,14.30
2019-01-16T22:31:02.982Z,13.60
2019-01-16T22:33:57.851Z,12.60
2019-01-16T22:36:41.771Z,12.60
2019-01-16T22:39:39.984Z,15.75
2019-01-16T22:42:22.037Z,13.88
2019-01-16T22:45:11.907Z,13.82
2019-01-16T22:47:59.456Z,14.50
2019-01-16T22:50:52.111Z,15.98
2019-01-16T22:53:35.094Z,12.27
2019-01-16T22:56:30.051Z,15.50
2019-01-16T22:59:18.143Z,12.93
2019-01-16T23:02:06.027Z,14.38
2019-01-16T23:05:01.019Z,14.07
2019-01-16T23:07:58.946Z,13.45
2019-01-16T23:10:50.515Z,14.40
2019-01-16T23:13:38.314Z,12.58
2019-01-16T23:16:30.190Z,12.88
2019-01-16T23:19:17.811Z,12.93
2019-01-16T23:22:05.567Z,14.67
2019-01-16T23:24:53.572Z,12.63
2019-01-16T23:27:40.967Z,15.05
2019-01-16T23:30:22.042Z,14.30
2019-01-16T23:33:12.247Z,15.60
2019-01-16T23:36:04.110Z,14.75
2019-01-16T23:38:56.345Z,14.95
2019-01-16T23:41:49.037Z,13.35
2019-01-16T23:44:38.017Z,13.70
2019-01-16T23:47:23.379Z,11.15
2019-01-16T23:50:07.867Z,11.53
2019-01-16T23:52:56.811Z,16.02
2019-01-16T23:55:41.362Z,16.35
2019-01-16T23:58:29.135Z,12.70
